sensor_id;sensor_type;location;lat;lon;timestamp;P1;durP1;ratioP1;P2;durP2;ratioP2
59271;SDS011;45043;51.068;7.026;2024-01-07T00:01:49;34.30;;;21.97;;
59271;SDS011;45043;51.068;7.026;2024-01-07T00:04:50;28.93;;;20.17;;
59271;SDS011;45043;51.068;7.026;2024-01-07T00:07:50;27.60;;;19.47;;
59271;SDS011;45043;51.068;7.026;2024-01-07T00:10:52;25.53;;;18.33;;
59271;SDS011;45043;51.068;7.026;2024-01-07T00:13:52;26.00;;;18.17;;
59271;SDS011;45043;51.068;7.026;2024-01-07T00:16:53;28.13;;;19.83;;
59271;SDS011;45043;51.068;7.026;2024-01-07T00:19:54;22.90;;;16.83;;
59271;SDS011;45043;51.068;7.026;2024-01-07T00:22:54;20.17;;;14.63;;
59271;SDS011;45043;51.068;7.026;2024-01-07T00:25:56;21.27;;;14.97;;
59271;SDS011;45043;51.068;7.026;2024-01-07T00:28:57;19.70;;;15.23;;
59271;SDS011;45043;51.068;7.026;2024-01-07T00:31:58;15.90;;;12.93;;
59271;SDS011;45043;51.068;7.026;2024-01-07T00:34:58;15.90;;;12.00;;
59271;SDS011;45043;51.068;7.026;2024-01-07T00:41:53;12.37;;;10.70;;
59271;SDS011;45043;51.068;7.026;2024-01-07T00:44:53;13.80;;;10.87;;
59271;SDS011;45043;51.068;7.026;2024-01-07T00:48:13;11.07;;;9.43;;
59271;SDS011;45043;51.068;7.026;2024-01-07T00:51:17;10.90;;;9.33;;
59271;SDS011;45043;51.068;7.026;2024-01-07T00:54:24;11.03;;;9.77;;
59271;SDS011;45043;51.068;7.026;2024-01-07T00:57:28;10.83;;;9.17;;
59271;SDS011;45043;51.068;7.026;2024-01-07T01:00:28;10.37;;;9.30;;
59271;SDS011;45043;51.068;7.026;2024-01-07T01:03:29;10.93;;;9.73;;
59271;SDS011;45043;51.068;7.026;2024-01-07T01:06:30;11.13;;;10.00;;
59271;SDS011;45043;51.068;7.026;2024-01-07T01:09:30;10.60;;;9.60;;
59271;SDS011;45043;51.068;7.026;2024-01-07T01:12:31;10.70;;;9.13;;
59271;SDS011;45043;51.068;7.026;2024-01-07T01:15:39;11.33;;;10.03;;
59271;SDS011;45043;51.068;7.026;2024-01-07T01:18:46;12.90;;;11.13;;
59271;SDS011;45043;51.068;7.026;2024-01-07T01:21:47;12.70;;;11.40;;
59271;SDS011;45043;51.068;7.026;2024-01-07T01:24:47;12.07;;;10.87;;
59271;SDS011;45043;51.068;7.026;2024-01-07T01:27:53;14.37;;;12.37;;
59271;SDS011;45043;51.068;7.026;2024-01-07T01:30:53;15.33;;;12.70;;
59271;SDS011;45043;51.068;7.026;2024-01-07T01:33:54;16.57;;;12.83;;
59271;SDS011;45043;51.068;7.026;2024-01-07T01:36:55;14.13;;;12.63;;
59271;SDS011;45043;51.068;7.026;2024-01-07T01:39:56;14.17;;;12.30;;
59271;SDS011;45043;51.068;7.026;2024-01-07T01:42:57;18.97;;;14.00;;
59271;SDS011;45043;51.068;7.026;2024-01-07T01:46:01;15.10;;;13.50;;
59271;SDS011;45043;51.068;7.026;2024-01-07T01:49:10;17.53;;;13.77;;
59271;SDS011;45043;51.068;7.026;2024-01-07T01:52:12;17.87;;;13.97;;
59271;SDS011;45043;51.068;7.026;2024-01-07T01:55:14;17.47;;;13.93;;
59271;SDS011;45043;51.068;7.026;2024-01-07T01:58:15;18.20;;;14.87;;
59271;SDS011;45043;51.068;7.026;2024-01-07T02:01:18;18.50;;;14.60;;
59271;SDS011;45043;51.068;7.026;2024-01-07T02:04:19;18.80;;;15.27;;
59271;SDS011;45043;51.068;7.026;2024-01-07T02:07:19;19.93;;;15.63;;
59271;SDS011;45043;51.068;7.026;2024-01-07T02:10:20;22.77;;;18.07;;
59271;SDS011;45043;51.068;7.026;2024-01-07T02:13:21;21.73;;;18.53;;
59271;SDS011;45043;51.068;7.026;2024-01-07T02:16:21;23.07;;;18.73;;
59271;SDS011;45043;51.068;7.026;2024-01-07T02:19:22;23.67;;;18.70;;
59271;SDS011;45043;51.068;7.026;2024-01-07T02:22:24;22.13;;;18.13;;
59271;SDS011;45043;51.068;7.026;2024-01-07T02:25:25;21.97;;;18.13;;
59271;SDS011;45043;51.068;7.026;2024-01-07T02:28:26;22.97;;;17.80;;
59271;SDS011;45043;51.068;7.026;2024-01-07T02:31:26;24.93;;;20.17;;
59271;SDS011;45043;51.068;7.026;2024-01-07T02:34:27;22.57;;;18.40;;
59271;SDS011;45043;51.068;7.026;2024-01-07T02:37:28;23.23;;;19.23;;
59271;SDS011;45043;51.068;7.026;2024-01-07T02:40:28;25.97;;;20.93;;
59271;SDS011;45043;51.068;7.026;2024-01-07T02:43:29;27.80;;;23.03;;
59271;SDS011;45043;51.068;7.026;2024-01-07T02:46:30;27.97;;;22.77;;
59271;SDS011;45043;51.068;7.026;2024-01-07T02:49:31;26.40;;;21.47;;
59271;SDS011;45043;51.068;7.026;2024-01-07T02:52:31;26.93;;;21.73;;
59271;SDS011;45043;51.068;7.026;2024-01-07T02:55:32;26.13;;;22.17;;
59271;SDS011;45043;51.068;7.026;2024-01-07T02:58:32;26.90;;;23.00;;
59271;SDS011;45043;51.068;7.026;2024-01-07T03:01:33;27.93;;;22.10;;
59271;SDS011;45043;51.068;7.026;2024-01-07T03:04:40;25.27;;;20.97;;
59271;SDS011;45043;51.068;7.026;2024-01-07T03:07:41;26.40;;;22.10;;
59271;SDS011;45043;51.068;7.026;2024-01-07T03:10:41;27.07;;;20.47;;
59271;SDS011;45043;51.068;7.026;2024-01-07T03:13:42;26.13;;;20.53;;
59271;SDS011;45043;51.068;7.026;2024-01-07T03:16:43;23.80;;;18.80;;
59271;SDS011;45043;51.068;7.026;2024-01-07T03:19:43;23.77;;;18.40;;
59271;SDS011;45043;51.068;7.026;2024-01-07T03:22:44;23.90;;;18.97;;
59271;SDS011;45043;51.068;7.026;2024-01-07T03:25:45;24.80;;;20.43;;
59271;SDS011;45043;51.068;7.026;2024-01-07T03:28:45;23.77;;;19.27;;
59271;SDS011;45043;51.068;7.026;2024-01-07T03:31:46;26.83;;;21.50;;
59271;SDS011;45043;51.068;7.026;2024-01-07T03:34:47;28.97;;;22.13;;
59271;SDS011;45043;51.068;7.026;2024-01-07T03:37:48;26.83;;;21.00;;
59271;SDS011;45043;51.068;7.026;2024-01-07T03:40:49;27.50;;;22.07;;
59271;SDS011;45043;51.068;7.026;2024-01-07T03:43:50;25.57;;;20.63;;
59271;SDS011;45043;51.068;7.026;2024-01-07T03:46:53;26.23;;;19.20;;
59271;SDS011;45043;51.068;7.026;2024-01-07T03:49:57;25.50;;;18.67;;
59271;SDS011;45043;51.068;7.026;2024-01-07T03:53:01;27.17;;;18.70;;
59271;SDS011;45043;51.068;7.026;2024-01-07T03:56:05;25.60;;;19.47;;
59271;SDS011;45043;51.068;7.026;2024-01-07T03:59:09;24.10;;;18.53;;
59271;SDS011;45043;51.068;7.026;2024-01-07T04:02:10;25.87;;;19.50;;
59271;SDS011;45043;51.068;7.026;2024-01-07T04:05:11;24.53;;;18.63;;
59271;SDS011;45043;51.068;7.026;2024-01-07T04:08:13;26.17;;;19.37;;
59271;SDS011;45043;51.068;7.026;2024-01-07T04:11:16;26.37;;;20.13;;
59271;SDS011;45043;51.068;7.026;2024-01-07T04:14:16;25.03;;;19.17;;
59271;SDS011;45043;51.068;7.026;2024-01-07T04:17:17;24.67;;;19.33;;
59271;SDS011;45043;51.068;7.026;2024-01-07T04:20:18;25.80;;;18.97;;
59271;SDS011;45043;51.068;7.026;2024-01-07T04:23:19;24.33;;;19.57;;
59271;SDS011;45043;51.068;7.026;2024-01-07T04:26:20;26.00;;;19.07;;
59271;SDS011;45043;51.068;7.026;2024-01-07T04:29:20;24.90;;;19.17;;
59271;SDS011;45043;51.068;7.026;2024-01-07T04:32:21;25.00;;;20.03;;
59271;SDS011;45043;51.068;7.026;2024-01-07T04:35:21;25.23;;;19.57;;
59271;SDS011;45043;51.068;7.026;2024-01-07T04:38:22;26.10;;;19.30;;
59271;SDS011;45043;51.068;7.026;2024-01-07T04:41:23;24.27;;;19.63;;
59271;SDS011;45043;51.068;7.026;2024-01-07T04:44:23;22.87;;;19.07;;
59271;SDS011;45043;51.068;7.026;2024-01-07T04:50:28;21.03;;;17.57;;
59271;SDS011;45043;51.068;7.026;2024-01-07T04:53:29;22.80;;;19.33;;
59271;SDS011;45043;51.068;7.026;2024-01-07T04:56:30;22.40;;;19.07;;
59271;SDS011;45043;51.068;7.026;2024-01-07T04:59:30;22.30;;;19.00;;
59271;SDS011;45043;51.068;7.026;2024-01-07T05:02:31;22.03;;;18.63;;
59271;SDS011;45043;51.068;7.026;2024-01-07T05:05:32;21.50;;;18.70;;
59271;SDS011;45043;51.068;7.026;2024-01-07T05:08:33;21.60;;;18.20;;
59271;SDS011;45043;51.068;7.026;2024-01-07T05:11:38;23.20;;;19.07;;
59271;SDS011;45043;51.068;7.026;2024-01-07T05:14:40;25.47;;;19.73;;
59271;SDS011;45043;51.068;7.026;2024-01-07T05:17:43;23.77;;;19.17;;
59271;SDS011;45043;51.068;7.026;2024-01-07T05:20:43;24.17;;;19.37;;
59271;SDS011;45043;51.068;7.026;2024-01-07T05:23:44;21.90;;;18.83;;
59271;SDS011;45043;51.068;7.026;2024-01-07T05:26:45;20.77;;;17.73;;
59271;SDS011;45043;51.068;7.026;2024-01-07T05:29:46;19.90;;;16.93;;
59271;SDS011;45043;51.068;7.026;2024-01-07T05:32:50;18.77;;;15.87;;
59271;SDS011;45043;51.068;7.026;2024-01-07T05:35:50;19.87;;;17.67;;
59271;SDS011;45043;51.068;7.026;2024-01-07T05:38:51;18.97;;;16.93;;
59271;SDS011;45043;51.068;7.026;2024-01-07T05:41:52;17.07;;;15.27;;
59271;SDS011;45043;51.068;7.026;2024-01-07T05:44:52;17.83;;;15.93;;
59271;SDS011;45043;51.068;7.026;2024-01-07T05:47:53;19.80;;;17.37;;
59271;SDS011;45043;51.068;7.026;2024-01-07T05:50:53;17.20;;;15.40;;
59271;SDS011;45043;51.068;7.026;2024-01-07T05:53:54;18.57;;;16.63;;
59271;SDS011;45043;51.068;7.026;2024-01-07T05:56:55;16.77;;;14.93;;
59271;SDS011;45043;51.068;7.026;2024-01-07T05:59:56;17.83;;;16.00;;
59271;SDS011;45043;51.068;7.026;2024-01-07T06:02:57;18.57;;;16.53;;
59271;SDS011;45043;51.068;7.026;2024-01-07T06:05:58;16.97;;;14.93;;
59271;SDS011;45043;51.068;7.026;2024-01-07T06:08:59;19.27;;;16.07;;
59271;SDS011;45043;51.068;7.026;2024-01-07T06:12:00;18.30;;;15.97;;
59271;SDS011;45043;51.068;7.026;2024-01-07T06:15:01;17.50;;;15.53;;
59271;SDS011;45043;51.068;7.026;2024-01-07T06:18:03;19.53;;;17.13;;
59271;SDS011;45043;51.068;7.026;2024-01-07T06:21:04;18.30;;;16.07;;
59271;SDS011;45043;51.068;7.026;2024-01-07T06:24:04;19.03;;;16.23;;
59271;SDS011;45043;51.068;7.026;2024-01-07T06:27:05;18.77;;;16.40;;
59271;SDS011;45043;51.068;7.026;2024-01-07T06:30:06;18.27;;;16.20;;
59271;SDS011;45043;51.068;7.026;2024-01-07T06:33:08;17.33;;;15.00;;
59271;SDS011;45043;51.068;7.026;2024-01-07T06:39:18;18.67;;;13.37;;
59271;SDS011;45043;51.068;7.026;2024-01-07T06:42:18;17.40;;;13.87;;
59271;SDS011;45043;51.068;7.026;2024-01-07T06:45:22;15.40;;;12.60;;
59271;SDS011;45043;51.068;7.026;2024-01-07T06:48:23;15.00;;;12.73;;
59271;SDS011;45043;51.068;7.026;2024-01-07T06:51:24;14.77;;;13.27;;
59271;SDS011;45043;51.068;7.026;2024-01-07T06:54:24;15.60;;;13.40;;
59271;SDS011;45043;51.068;7.026;2024-01-07T06:57:25;14.30;;;12.80;;
59271;SDS011;45043;51.068;7.026;2024-01-07T07:00:26;15.17;;;13.53;;
59271;SDS011;45043;51.068;7.026;2024-01-07T07:03:27;14.90;;;13.30;;
59271;SDS011;45043;51.068;7.026;2024-01-07T07:06:28;14.37;;;12.83;;
59271;SDS011;45043;51.068;7.026;2024-01-07T07:09:28;14.70;;;13.30;;
59271;SDS011;45043;51.068;7.026;2024-01-07T07:12:29;14.50;;;13.07;;
59271;SDS011;45043;51.068;7.026;2024-01-07T07:15:29;14.73;;;13.07;;
59271;SDS011;45043;51.068;7.026;2024-01-07T07:18:30;15.33;;;13.13;;
59271;SDS011;45043;51.068;7.026;2024-01-07T07:21:31;15.53;;;13.53;;
59271;SDS011;45043;51.068;7.026;2024-01-07T07:24:32;13.60;;;12.20;;
59271;SDS011;45043;51.068;7.026;2024-01-07T07:27:33;15.17;;;13.57;;
59271;SDS011;45043;51.068;7.026;2024-01-07T07:30:34;14.47;;;12.97;;
59271;SDS011;45043;51.068;7.026;2024-01-07T07:33:34;14.87;;;13.23;;
59271;SDS011;45043;51.068;7.026;2024-01-07T07:36:35;14.60;;;13.10;;
59271;SDS011;45043;51.068;7.026;2024-01-07T07:39:38;14.97;;;13.33;;
59271;SDS011;45043;51.068;7.026;2024-01-07T07:42:39;15.17;;;13.60;;
59271;SDS011;45043;51.068;7.026;2024-01-07T07:45:39;14.33;;;12.27;;
59271;SDS011;45043;51.068;7.026;2024-01-07T07:48:40;15.37;;;13.00;;
59271;SDS011;45043;51.068;7.026;2024-01-07T07:51:44;14.93;;;13.43;;
59271;SDS011;45043;51.068;7.026;2024-01-07T07:54:44;13.70;;;12.30;;
59271;SDS011;45043;51.068;7.026;2024-01-07T07:57:45;13.77;;;12.33;;
59271;SDS011;45043;51.068;7.026;2024-01-07T08:00:46;14.57;;;13.07;;
59271;SDS011;45043;51.068;7.026;2024-01-07T08:03:47;15.33;;;13.73;;
59271;SDS011;45043;51.068;7.026;2024-01-07T08:06:48;14.80;;;13.27;;
59271;SDS011;45043;51.068;7.026;2024-01-07T08:09:51;14.67;;;13.10;;
59271;SDS011;45043;51.068;7.026;2024-01-07T08:12:53;16.10;;;13.57;;
59271;SDS011;45043;51.068;7.026;2024-01-07T08:15:54;16.00;;;14.23;;
59271;SDS011;45043;51.068;7.026;2024-01-07T08:18:55;16.20;;;14.47;;
59271;SDS011;45043;51.068;7.026;2024-01-07T08:21:57;16.83;;;15.03;;
59271;SDS011;45043;51.068;7.026;2024-01-07T08:24:58;18.33;;;16.13;;
59271;SDS011;45043;51.068;7.026;2024-01-07T08:27:58;19.37;;;16.80;;
59271;SDS011;45043;51.068;7.026;2024-01-07T08:31:00;17.57;;;14.53;;
59271;SDS011;45043;51.068;7.026;2024-01-07T08:34:01;18.50;;;16.20;;
59271;SDS011;45043;51.068;7.026;2024-01-07T08:37:01;20.60;;;18.03;;
59271;SDS011;45043;51.068;7.026;2024-01-07T08:40:03;17.80;;;15.83;;
59271;SDS011;45043;51.068;7.026;2024-01-07T08:43:05;19.47;;;15.93;;
59271;SDS011;45043;51.068;7.026;2024-01-07T08:46:06;19.87;;;17.10;;
59271;SDS011;45043;51.068;7.026;2024-01-07T08:49:06;18.50;;;16.40;;
59271;SDS011;45043;51.068;7.026;2024-01-07T08:52:07;19.63;;;16.50;;
59271;SDS011;45043;51.068;7.026;2024-01-07T08:55:08;21.27;;;17.93;;
59271;SDS011;45043;51.068;7.026;2024-01-07T08:58:10;24.23;;;18.80;;
59271;SDS011;45043;51.068;7.026;2024-01-07T09:01:11;23.53;;;19.33;;
59271;SDS011;45043;51.068;7.026;2024-01-07T09:04:14;19.97;;;16.70;;
59271;SDS011;45043;51.068;7.026;2024-01-07T09:07:18;18.80;;;16.13;;
59271;SDS011;45043;51.068;7.026;2024-01-07T09:10:19;20.17;;;16.13;;
59271;SDS011;45043;51.068;7.026;2024-01-07T09:13:21;18.73;;;16.33;;
59271;SDS011;45043;51.068;7.026;2024-01-07T09:16:22;18.83;;;16.30;;
59271;SDS011;45043;51.068;7.026;2024-01-07T09:19:23;16.13;;;14.40;;
59271;SDS011;45043;51.068;7.026;2024-01-07T09:22:24;19.87;;;16.67;;
59271;SDS011;45043;51.068;7.026;2024-01-07T09:25:25;14.97;;;13.47;;
59271;SDS011;45043;51.068;7.026;2024-01-07T09:28:26;14.90;;;12.97;;
59271;SDS011;45043;51.068;7.026;2024-01-07T09:31:27;15.40;;;13.80;;
59271;SDS011;45043;51.068;7.026;2024-01-07T09:34:29;14.20;;;12.70;;
59271;SDS011;45043;51.068;7.026;2024-01-07T09:37:29;13.50;;;12.10;;
59271;SDS011;45043;51.068;7.026;2024-01-07T09:40:30;14.03;;;12.63;;
59271;SDS011;45043;51.068;7.026;2024-01-07T09:43:31;12.77;;;11.57;;
59271;SDS011;45043;51.068;7.026;2024-01-07T09:46:32;12.07;;;10.90;;
59271;SDS011;45043;51.068;7.026;2024-01-07T09:49:35;10.93;;;9.83;;
59271;SDS011;45043;51.068;7.026;2024-01-07T09:52:37;11.93;;;10.77;;
59271;SDS011;45043;51.068;7.026;2024-01-07T09:55:57;12.00;;;10.90;;
59271;SDS011;45043;51.068;7.026;2024-01-07T09:59:19;10.90;;;9.80;;
59271;SDS011;45043;51.068;7.026;2024-01-07T10:02:20;11.27;;;10.17;;
59271;SDS011;45043;51.068;7.026;2024-01-07T10:05:24;12.60;;;11.40;;
59271;SDS011;45043;51.068;7.026;2024-01-07T10:08:32;13.80;;;12.40;;
59271;SDS011;45043;51.068;7.026;2024-01-07T10:11:36;14.97;;;13.47;;
59271;SDS011;45043;51.068;7.026;2024-01-07T10:14:37;14.40;;;12.90;;
59271;SDS011;45043;51.068;7.026;2024-01-07T10:17:41;16.27;;;13.87;;
59271;SDS011;45043;51.068;7.026;2024-01-07T10:20:42;16.80;;;13.70;;
59271;SDS011;45043;51.068;7.026;2024-01-07T10:23:43;15.07;;;13.47;;
59271;SDS011;45043;51.068;7.026;2024-01-07T10:26:44;16.40;;;14.20;;
59271;SDS011;45043;51.068;7.026;2024-01-07T10:29:46;16.53;;;14.80;;
59271;SDS011;45043;51.068;7.026;2024-01-07T10:32:50;16.73;;;15.00;;
59271;SDS011;45043;51.068;7.026;2024-01-07T10:35:57;18.23;;;14.93;;
59271;SDS011;45043;51.068;7.026;2024-01-07T10:39:04;18.93;;;15.63;;
59271;SDS011;45043;51.068;7.026;2024-01-07T10:42:05;17.10;;;15.17;;
59271;SDS011;45043;51.068;7.026;2024-01-07T10:45:07;17.53;;;14.63;;
59271;SDS011;45043;51.068;7.026;2024-01-07T10:48:08;17.10;;;15.30;;
59271;SDS011;45043;51.068;7.026;2024-01-07T10:51:11;21.50;;;16.63;;
59271;SDS011;45043;51.068;7.026;2024-01-07T10:54:16;18.20;;;16.30;;
59271;SDS011;45043;51.068;7.026;2024-01-07T10:57:42;18.03;;;15.93;;
59271;SDS011;45043;51.068;7.026;2024-01-07T11:00:44;18.67;;;16.67;;
59271;SDS011;45043;51.068;7.026;2024-01-07T11:04:04;17.83;;;16.03;;
59271;SDS011;45043;51.068;7.026;2024-01-07T11:10:39;28.73;;;23.13;;
59271;SDS011;45043;51.068;7.026;2024-01-07T11:13:46;21.00;;;18.70;;
59271;SDS011;45043;51.068;7.026;2024-01-07T11:16:47;19.23;;;16.03;;
59271;SDS011;45043;51.068;7.026;2024-01-07T11:19:51;17.30;;;15.33;;
59271;SDS011;45043;51.068;7.026;2024-01-07T11:23:24;16.33;;;14.60;;
59271;SDS011;45043;51.068;7.026;2024-01-07T11:26:40;24.30;;;21.37;;
59271;SDS011;45043;51.068;7.026;2024-01-07T11:29:41;16.90;;;14.37;;
59271;SDS011;45043;51.068;7.026;2024-01-07T11:32:44;17.33;;;15.43;;
59271;SDS011;45043;51.068;7.026;2024-01-07T11:36:02;14.50;;;13.00;;
59271;SDS011;45043;51.068;7.026;2024-01-07T11:39:05;15.13;;;13.47;;
59271;SDS011;45043;51.068;7.026;2024-01-07T11:42:09;15.17;;;13.17;;
59271;SDS011;45043;51.068;7.026;2024-01-07T11:45:11;13.70;;;12.23;;
59271;SDS011;45043;51.068;7.026;2024-01-07T11:48:12;14.77;;;12.27;;
59271;SDS011;45043;51.068;7.026;2024-01-07T11:51:14;14.40;;;12.77;;
59271;SDS011;45043;51.068;7.026;2024-01-07T11:54:17;21.20;;;18.70;;
59271;SDS011;45043;51.068;7.026;2024-01-07T11:57:18;16.67;;;14.93;;
59271;SDS011;45043;51.068;7.026;2024-01-07T12:00:19;17.73;;;15.67;;
59271;SDS011;45043;51.068;7.026;2024-01-07T12:03:19;14.87;;;13.27;;
59271;SDS011;45043;51.068;7.026;2024-01-07T12:06:20;16.43;;;12.23;;
59271;SDS011;45043;51.068;7.026;2024-01-07T12:09:21;13.53;;;12.13;;
59271;SDS011;45043;51.068;7.026;2024-01-07T12:12:22;12.50;;;11.20;;
59271;SDS011;45043;51.068;7.026;2024-01-07T12:15:23;12.73;;;11.43;;
59271;SDS011;45043;51.068;7.026;2024-01-07T12:18:25;13.43;;;12.03;;
59271;SDS011;45043;51.068;7.026;2024-01-07T12:21:26;13.13;;;11.73;;
59271;SDS011;45043;51.068;7.026;2024-01-07T12:24:29;14.13;;;11.20;;
59271;SDS011;45043;51.068;7.026;2024-01-07T12:27:33;11.77;;;10.57;;
59271;SDS011;45043;51.068;7.026;2024-01-07T12:30:34;11.83;;;10.60;;
59271;SDS011;45043;51.068;7.026;2024-01-07T12:33:38;11.20;;;10.07;;
59271;SDS011;45043;51.068;7.026;2024-01-07T12:36:41;12.60;;;10.33;;
59271;SDS011;45043;51.068;7.026;2024-01-07T12:39:42;11.07;;;9.70;;
59271;SDS011;45043;51.068;7.026;2024-01-07T12:42:43;11.43;;;9.63;;
59271;SDS011;45043;51.068;7.026;2024-01-07T12:45:47;11.27;;;10.10;;
59271;SDS011;45043;51.068;7.026;2024-01-07T12:48:48;12.93;;;10.40;;
59271;SDS011;45043;51.068;7.026;2024-01-07T12:51:51;10.87;;;9.37;;
59271;SDS011;45043;51.068;7.026;2024-01-07T12:54:54;10.03;;;9.07;;
59271;SDS011;45043;51.068;7.026;2024-01-07T12:57:56;10.33;;;9.30;;
59271;SDS011;45043;51.068;7.026;2024-01-07T13:00:57;9.80;;;8.60;;
59271;SDS011;45043;51.068;7.026;2024-01-07T13:03:58;9.57;;;8.67;;
59271;SDS011;45043;51.068;7.026;2024-01-07T13:06:59;9.23;;;8.33;;
59271;SDS011;45043;51.068;7.026;2024-01-07T13:10:00;9.17;;;8.27;;
59271;SDS011;45043;51.068;7.026;2024-01-07T13:13:00;9.30;;;7.87;;
59271;SDS011;45043;51.068;7.026;2024-01-07T13:16:01;9.53;;;8.57;;
59271;SDS011;45043;51.068;7.026;2024-01-07T13:19:02;9.77;;;8.87;;
59271;SDS011;45043;51.068;7.026;2024-01-07T13:22:04;8.87;;;8.00;;
59271;SDS011;45043;51.068;7.026;2024-01-07T13:25:05;8.57;;;7.77;;
59271;SDS011;45043;51.068;7.026;2024-01-07T13:28:07;8.67;;;7.87;;
59271;SDS011;45043;51.068;7.026;2024-01-07T13:31:11;9.40;;;8.33;;
59271;SDS011;45043;51.068;7.026;2024-01-07T13:34:16;9.20;;;8.30;;
59271;SDS011;45043;51.068;7.026;2024-01-07T13:37:18;9.37;;;8.47;;
59271;SDS011;45043;51.068;7.026;2024-01-07T13:40:20;9.67;;;8.67;;
59271;SDS011;45043;51.068;7.026;2024-01-07T13:43:21;11.00;;;9.23;;
59271;SDS011;45043;51.068;7.026;2024-01-07T13:46:24;9.77;;;8.87;;
59271;SDS011;45043;51.068;7.026;2024-01-07T13:49:25;9.30;;;8.37;;
59271;SDS011;45043;51.068;7.026;2024-01-07T13:52:26;9.17;;;8.27;;
59271;SDS011;45043;51.068;7.026;2024-01-07T13:55:29;9.03;;;8.20;;
59271;SDS011;45043;51.068;7.026;2024-01-07T13:58:30;9.50;;;8.60;;
59271;SDS011;45043;51.068;7.026;2024-01-07T14:01:32;8.00;;;7.27;;
59271;SDS011;45043;51.068;7.026;2024-01-07T14:04:32;8.37;;;7.67;;
59271;SDS011;45043;51.068;7.026;2024-01-07T14:07:33;9.10;;;8.20;;
59271;SDS011;45043;51.068;7.026;2024-01-07T14:10:34;6.93;;;6.30;;
59271;SDS011;45043;51.068;7.026;2024-01-07T14:13:36;8.33;;;7.37;;
59271;SDS011;45043;51.068;7.026;2024-01-07T14:16:37;7.63;;;6.93;;
59271;SDS011;45043;51.068;7.026;2024-01-07T14:19:40;6.70;;;6.10;;
59271;SDS011;45043;51.068;7.026;2024-01-07T14:22:42;6.10;;;5.50;;
59271;SDS011;45043;51.068;7.026;2024-01-07T14:25:42;6.33;;;5.73;;
59271;SDS011;45043;51.068;7.026;2024-01-07T14:28:43;7.20;;;6.50;;
59271;SDS011;45043;51.068;7.026;2024-01-07T14:31:44;7.63;;;6.37;;
59271;SDS011;45043;51.068;7.026;2024-01-07T14:34:46;6.83;;;6.13;;
59271;SDS011;45043;51.068;7.026;2024-01-07T14:37:47;7.13;;;6.03;;
59271;SDS011;45043;51.068;7.026;2024-01-07T14:40:48;7.00;;;5.80;;
59271;SDS011;45043;51.068;7.026;2024-01-07T14:43:51;14.17;;;10.57;;
59271;SDS011;45043;51.068;7.026;2024-01-07T14:46:52;24.03;;;16.80;;
59271;SDS011;45043;51.068;7.026;2024-01-07T14:49:56;17.37;;;13.97;;
59271;SDS011;45043;51.068;7.026;2024-01-07T14:56:12;10.57;;;7.13;;
59271;SDS011;45043;51.068;7.026;2024-01-07T14:59:14;6.77;;;6.00;;
59271;SDS011;45043;51.068;7.026;2024-01-07T15:02:14;6.37;;;4.83;;
59271;SDS011;45043;51.068;7.026;2024-01-07T15:05:18;5.83;;;5.10;;
59271;SDS011;45043;51.068;7.026;2024-01-07T15:08:19;5.27;;;4.77;;
59271;SDS011;45043;51.068;7.026;2024-01-07T15:11:20;5.03;;;4.43;;
59271;SDS011;45043;51.068;7.026;2024-01-07T15:14:22;4.87;;;4.43;;
59271;SDS011;45043;51.068;7.026;2024-01-07T15:17:27;5.43;;;4.93;;
59271;SDS011;45043;51.068;7.026;2024-01-07T15:20:27;5.23;;;4.47;;
59271;SDS011;45043;51.068;7.026;2024-01-07T15:23:28;7.07;;;4.60;;
59271;SDS011;45043;51.068;7.026;2024-01-07T15:26:29;5.60;;;5.00;;
59271;SDS011;45043;51.068;7.026;2024-01-07T15:29:31;5.17;;;4.10;;
59271;SDS011;45043;51.068;7.026;2024-01-07T15:32:31;5.03;;;4.33;;
59271;SDS011;45043;51.068;7.026;2024-01-07T15:35:33;5.13;;;4.63;;
59271;SDS011;45043;51.068;7.026;2024-01-07T15:38:34;4.93;;;4.43;;
59271;SDS011;45043;51.068;7.026;2024-01-07T15:41:39;5.10;;;4.10;;
59271;SDS011;45043;51.068;7.026;2024-01-07T15:44:39;5.10;;;4.60;;
59271;SDS011;45043;51.068;7.026;2024-01-07T15:47:42;4.80;;;4.40;;
59271;SDS011;45043;51.068;7.026;2024-01-07T15:50:43;5.03;;;4.47;;
59271;SDS011;45043;51.068;7.026;2024-01-07T15:53:44;5.73;;;4.90;;
59271;SDS011;45043;51.068;7.026;2024-01-07T15:56:45;5.40;;;4.80;;
59271;SDS011;45043;51.068;7.026;2024-01-07T15:59:46;5.20;;;4.70;;
59271;SDS011;45043;51.068;7.026;2024-01-07T16:02:47;4.90;;;4.50;;
59271;SDS011;45043;51.068;7.026;2024-01-07T16:05:48;5.53;;;5.03;;
59271;SDS011;45043;51.068;7.026;2024-01-07T16:08:48;5.90;;;5.30;;
59271;SDS011;45043;51.068;7.026;2024-01-07T16:11:49;4.70;;;4.30;;
59271;SDS011;45043;51.068;7.026;2024-01-07T16:14:52;5.60;;;4.43;;
59271;SDS011;45043;51.068;7.026;2024-01-07T16:17:52;5.10;;;4.60;;
59271;SDS011;45043;51.068;7.026;2024-01-07T16:20:53;5.13;;;4.30;;
59271;SDS011;45043;51.068;7.026;2024-01-07T16:23:54;5.37;;;4.87;;
59271;SDS011;45043;51.068;7.026;2024-01-07T16:26:55;5.10;;;4.60;;
59271;SDS011;45043;51.068;7.026;2024-01-07T16:29:56;4.63;;;4.23;;
59271;SDS011;45043;51.068;7.026;2024-01-07T16:32:57;5.00;;;4.53;;
59271;SDS011;45043;51.068;7.026;2024-01-07T16:35:57;4.33;;;4.00;;
59271;SDS011;45043;51.068;7.026;2024-01-07T16:38:59;4.77;;;4.37;;
59271;SDS011;45043;51.068;7.026;2024-01-07T16:42:02;4.53;;;4.13;;
59271;SDS011;45043;51.068;7.026;2024-01-07T16:45:03;5.70;;;4.50;;
59271;SDS011;45043;51.068;7.026;2024-01-07T16:48:04;5.30;;;4.80;;
59271;SDS011;45043;51.068;7.026;2024-01-07T16:51:05;5.13;;;4.63;;
59271;SDS011;45043;51.068;7.026;2024-01-07T16:54:12;5.27;;;4.83;;
59271;SDS011;45043;51.068;7.026;2024-01-07T16:57:12;4.80;;;4.40;;
59271;SDS011;45043;51.068;7.026;2024-01-07T17:00:14;4.83;;;4.43;;
59271;SDS011;45043;51.068;7.026;2024-01-07T17:03:15;5.00;;;4.50;;
59271;SDS011;45043;51.068;7.026;2024-01-07T17:06:16;5.20;;;4.73;;
59271;SDS011;45043;51.068;7.026;2024-01-07T17:09:16;4.97;;;4.57;;
59271;SDS011;45043;51.068;7.026;2024-01-07T17:12:18;5.20;;;4.77;;
59271;SDS011;45043;51.068;7.026;2024-01-07T17:15:19;5.03;;;4.53;;
59271;SDS011;45043;51.068;7.026;2024-01-07T17:18:19;5.60;;;5.10;;
59271;SDS011;45043;51.068;7.026;2024-01-07T17:21:20;5.50;;;5.00;;
59271;SDS011;45043;51.068;7.026;2024-01-07T17:24:20;5.30;;;4.80;;
59271;SDS011;45043;51.068;7.026;2024-01-07T17:27:21;5.20;;;4.70;;
59271;SDS011;45043;51.068;7.026;2024-01-07T17:30:24;5.27;;;4.77;;
59271;SDS011;45043;51.068;7.026;2024-01-07T17:33:27;4.70;;;4.30;;
59271;SDS011;45043;51.068;7.026;2024-01-07T17:36:28;4.90;;;4.50;;
59271;SDS011;45043;51.068;7.026;2024-01-07T17:39:37;5.40;;;4.90;;
59271;SDS011;45043;51.068;7.026;2024-01-07T17:42:40;5.23;;;4.77;;
59271;SDS011;45043;51.068;7.026;2024-01-07T17:45:41;5.03;;;4.63;;
59271;SDS011;45043;51.068;7.026;2024-01-07T17:48:42;4.83;;;4.40;;
59271;SDS011;45043;51.068;7.026;2024-01-07T17:51:43;4.70;;;4.30;;
59271;SDS011;45043;51.068;7.026;2024-01-07T17:54:45;5.00;;;4.60;;
59271;SDS011;45043;51.068;7.026;2024-01-07T17:57:45;4.40;;;3.97;;
59271;SDS011;45043;51.068;7.026;2024-01-07T18:00:47;4.00;;;3.70;;
59271;SDS011;45043;51.068;7.026;2024-01-07T18:03:48;4.03;;;3.73;;
59271;SDS011;45043;51.068;7.026;2024-01-07T18:06:48;3.93;;;3.63;;
59271;SDS011;45043;51.068;7.026;2024-01-07T18:09:49;4.00;;;3.70;;